< < Back
Terminal Aerodrome Forecast


Current Version              Previous Versions:   1  2  3  4  5  6  7  8  9  

Terminal Aerodrome Forecast

355
FTUS42 KGSP 031739
TAFAND
TAF
KAND 031739Z 0318/0418 24010G18KT P6SM VCTS SCT040CB
     FM032000 25013G20KT P6SM SCT050
     FM040000 27008KT P6SM FEW060
     FM040400 27004KT P6SM SCT250
     FM041400 28007KT P6SM FEW250
     FM041600 28011KT P6SM FEW250=



Latest METAR

669
SAUS70 KWBC 032200
MTRAND
METAR KAND 032156Z AUTO 25012G19KT 10SM CLR 26/13 A2978 RMK AO2 SLP075
T02610128


USA.gov is the U.S. government's official web portal to all federal, state and local government web resources and services.